This is the latest recevied weather packets stored in our database for station/object K6CQU-13. If no packets are shown the sender has not sent any weather packets the latest 10 day(s).
| Time | Temp. | Humidity | Pressure | Rain* | Wind** | Luminosity | Snow |
|---|---|---|---|---|---|---|---|
| 1777688717 | 22.22° C | 58% | 1010.3 hPa | 0 mm | - | 33 W/m² | - |
| 1777688417 | 22.78° C | 57% | 1010.2 hPa | 0 mm | - | 29 W/m² | - |
| 1777688118 | 22.78° C | 56% | 1010.2 hPa | 0 mm | - | 28 W/m² | - |
| 1777687818 | 23.33° C | 55% | 1010.1 hPa | 0 mm | - | 29 W/m² | - |
| 1777687517 | 23.89° C | 53% | 1010.2 hPa | 0 mm | - | 30 W/m² | - |
| 1777674317 | 25° C | 53% | 1011.7 hPa | 0 mm | - | 566 W/m² | - |
| 1777674017 | 25° C | 52% | 1011.7 hPa | 0 mm | - | 559 W/m² | - |
| 1777673717 | 25° C | 52% | 1011.8 hPa | 0 mm | - | 581 W/m² | - |
| 1777673417 | 25° C | 53% | 1011.9 hPa | 0 mm | - | 613 W/m² | - |
| 1777673117 | 25° C | 53% | 1012 hPa | 0 mm | - | 687 W/m² | - |
| 1777672517 | 25° C | 54% | 1012.1 hPa | 0 mm | - | 700 W/m² | - |
| 1777671917 | 25° C | 53% | 1012.3 hPa | 0 mm | - | 693 W/m² | - |
| 1777671317 | 25° C | 53% | 1012.4 hPa | 0 mm | - | 751 W/m² | - |
| 1777671017 | 25° C | 54% | 1012.4 hPa | 0 mm | - | 784 W/m² | - |
| 1777670117 | 24.44° C | 54% | 1012.5 hPa | 0 mm | - | 783 W/m² | - |
| 1777669817 | 24.44° C | 55% | 1012.5 hPa | 0 mm | - | 734 W/m² | - |
| 1777669517 | 24.44° C | 55% | 1012.5 hPa | 0 mm | - | 814 W/m² | - |
| 1777669218 | 23.89° C | 56% | 1012.6 hPa | 0 mm | - | 856 W/m² | - |
| 1777667786 | 23.33° C | 57% | 1012.8 hPa | 0 mm | - | 725 W/m² | - |
| 1777667117 | 23.33° C | 58% | 1012.9 hPa | 0 mm | - | 757 W/m² | - |
| 1777666517 | 23.33° C | 58% | 1013 hPa | 0 mm | - | 841 W/m² | - |
| 1777666217 | 23.33° C | 58% | 1013 hPa | 0 mm | - | 836 W/m² | - |
| 1777665917 | 23.33° C | 57% | 1013 hPa | 0 mm | - | 860 W/m² | - |
| 1777665618 | 23.33° C | 58% | 1013.1 hPa | 0 mm | - | 885 W/m² | - |
| 1777664717 | 22.78° C | 58% | 1013.3 hPa | 0 mm | - | 851 W/m² | - |
* Rain latest hour (hover to see other rain measurements)
** Current wind speed in m/s (hover to see current wind gust speed)